Time;durP1;ratioP1;P1;durP2;ratioP2;P2;SDS_P1;SDS_P2;PMS_P1;PMS_P2;Temp;Humidity;BMP_temperature;BMP_pressure;BME280_temperature;BME280_humidity;BME280_pressure;Samples;Min_cycle;Max_cycle;Signal;HPM_P1;HPM_P2
2023/04/24 00:01:58;;;;;;;7.65;3.53;;;;;;;;;;4998283;28;20037;-92
2023/04/24 00:04:25;;;;;;;3.80;2.60;;;;;;;;;;4998303;28;20030;-92
2023/04/24 00:06:56;;;;;;;5.30;2.42;;;;;;;;;;4998401;28;20036;-92
2023/04/24 00:09:25;;;;;;;7.30;2.78;;;;;;;;;;4997987;28;20076;-91
2023/04/24 00:11:54;;;;;;;5.15;2.25;;;;;;;;;;4998401;28;20045;-92
2023/04/24 00:14:20;;;;;;;5.80;2.45;;;;;;;;;;4998090;28;20037;-92
2023/04/24 00:16:46;;;;;;;7.70;2.80;;;;;;;;;;4997675;28;20063;-92
2023/04/24 00:19:12;;;;;;;5.78;3.03;;;;;;;;;;4997621;28;20022;-92
2023/04/24 00:21:41;;;;;;;4.20;2.30;;;;;;;;;;4997735;28;20034;-92
2023/04/24 00:24:13;;;;;;;7.35;2.83;;;;;;;;;;4998047;28;20033;-92
2023/04/24 00:26:41;;;;;;;;;;;;;;;;;;4998074;28;20087;-92
2023/04/24 00:29:08;;;;;;;7.85;2.67;;;;;;;;;;4997323;28;19906;-92
2023/04/24 00:31:34;;;;;;;4.40;2.47;;;;;;;;;;4997592;28;20061;-93
2023/04/24 00:34:02;;;;;;;5.55;2.25;;;;;;;;;;4997642;28;20030;-92
2023/04/24 00:36:28;;;;;;;12.20;2.85;;;;;;;;;;4997740;28;20365;-92
2023/04/24 00:38:55;;;;;;;5.05;3.10;;;;;;;;;;4997327;28;20026;-92
2023/04/24 00:41:21;;;;;;;5.65;2.80;;;;;;;;;;4997395;28;20507;-92
2023/04/24 00:43:50;;;;;;;5.25;2.58;;;;;;;;;;4997143;28;20033;-92
2023/04/24 00:46:17;;;;;;;6.90;2.80;;;;;;;;;;4997257;28;20105;-92
2023/04/24 00:48:43;;;;;;;6.10;2.72;;;;;;;;;;4997304;28;20033;-92
2023/04/24 00:51:12;;;;;;;4.82;2.40;;;;;;;;;;4997681;28;20061;-92
2023/04/24 00:53:38;;;;;;;6.65;2.38;;;;;;;;;;4996946;28;20029;-92
2023/04/24 00:56:05;;;;;;;5.68;2.42;;;;;;;;;;4997041;28;20025;-93
2023/04/24 00:58:34;;;;;;;15.70;3.00;;;;;;;;;;4997353;28;20384;-92
2023/04/24 01:01:02;;;;;;;4.68;2.10;;;;;;;;;;4997075;28;20385;-93
2023/04/24 01:03:32;;;;;;;8.63;2.45;;;;;;;;;;4997402;28;20088;-93
2023/04/24 01:05:58;;;;;;;4.85;2.92;;;;;;;;;;4997130;28;20105;-92
2023/04/24 01:08:25;;;;;;;7.43;2.33;;;;;;;;;;4997224;28;20037;-92
2023/04/24 01:10:54;;;;;;;8.23;2.25;;;;;;;;;;4997215;28;20121;-93
2023/04/24 01:13:21;;;;;;;6.82;2.33;;;;;;;;;;4997359;28;20104;-92
2023/04/24 01:15:47;;;;;;;5.13;2.40;;;;;;;;;;4997211;28;20022;-93
2023/04/24 01:18:14;;;;;;;8.63;2.25;;;;;;;;;;4997010;28;20030;-92
2023/04/24 01:20:43;;;;;;;6.55;1.90;;;;;;;;;;4996768;28;20060;-93
2023/04/24 01:23:10;;;;;;;4.93;1.98;;;;;;;;;;4996971;28;20480;-93
2023/04/24 01:25:36;;;;;;;6.53;2.20;;;;;;;;;;4997084;28;20022;-93
2023/04/24 01:28:03;;;;;;;4.43;2.20;;;;;;;;;;4996813;28;20061;-93
2023/04/24 01:30:37;;;;;;;6.22;2.72;;;;;;;;;;4996936;28;20014;-93
2023/04/24 01:33:05;;;;;;;5.18;1.98;;;;;;;;;;4997803;28;20046;-93
2023/04/24 01:35:32;;;;;;;4.35;2.05;;;;;;;;;;4997218;28;20076;-93
2023/04/24 01:37:58;;;;;;;9.00;2.20;;;;;;;;;;4997212;28;20032;-93
2023/04/24 01:40:24;;;;;;;5.68;2.47;;;;;;;;;;5000598;28;20108;-93
2023/04/24 01:42:54;;;;;;;3.70;1.98;;;;;;;;;;5000710;28;20018;-93
2023/04/24 01:45:20;;;;;;;8.02;2.40;;;;;;;;;;5017834;28;20025;-94
2023/04/24 01:47:46;;;;;;;3.63;2.25;;;;;;;;;;5001456;28;20022;-93
2023/04/24 01:50:12;;;;;;;7.38;2.05;;;;;;;;;;5014323;28;20502;-93
2023/04/24 01:52:39;;;;;;;2.75;1.60;;;;;;;;;;5020170;28;20021;-93
2023/04/24 01:55:06;;;;;;;5.47;1.80;;;;;;;;;;5020522;28;20056;-93
2023/04/24 01:57:34;;;;;;;4.63;1.65;;;;;;;;;;5016635;28;20025;-93
2023/04/24 02:00:00;;;;;;;2.90;1.80;;;;;;;;;;5016820;28;20480;-93
2023/04/24 02:02:27;;;;;;;2.92;1.67;;;;;;;;;;5020078;28;20099;-94
2023/04/24 02:04:57;;;;;;;4.47;1.50;;;;;;;;;;5019982;28;20116;-93
2023/04/24 02:07:23;;;;;;;5.03;1.80;;;;;;;;;;5019975;28;20373;-93
2023/04/24 02:09:52;;;;;;;6.45;1.70;;;;;;;;;;5019871;28;20028;-93
2023/04/24 02:12:18;;;;;;;5.10;1.90;;;;;;;;;;5012800;28;20112;-94
2023/04/24 02:14:44;;;;;;;6.07;1.80;;;;;;;;;;5000520;28;20053;-93
2023/04/24 02:17:12;;;;;;;6.13;2.28;;;;;;;;;;5000140;28;20022;-91
2023/04/24 02:19:38;;;;;;;4.88;2.05;;;;;;;;;;4999970;28;20022;-93
2023/04/24 02:22:05;;;;;;;5.32;2.22;;;;;;;;;;5000521;28;20144;-93
2023/04/24 02:24:33;;;;;;;6.10;1.77;;;;;;;;;;5000204;28;20389;-92
2023/04/24 02:27:00;;;;;;;8.50;1.98;;;;;;;;;;4999810;28;20025;-93
2023/04/24 02:29:26;;;;;;;6.72;2.60;;;;;;;;;;5000027;28;20048;-93
2023/04/24 02:31:53;;;;;;;4.75;1.75;;;;;;;;;;5000229;28;20057;-93
2023/04/24 02:34:20;;;;;;;6.30;2.08;;;;;;;;;;4999764;28;20036;-93
2023/04/24 02:36:46;;;;;;;4.20;2.10;;;;;;;;;;4999946;28;20511;-92
2023/04/24 02:39:13;;;;;;;4.80;1.70;;;;;;;;;;4999865;28;20037;-93
2023/04/24 02:41:39;;;;;;;4.03;2.30;;;;;;;;;;5000078;28;20034;-93
2023/04/24 02:44:05;;;;;;;5.38;2.20;;;;;;;;;;5007125;28;20022;-92
2023/04/24 02:46:31;;;;;;;4.93;2.10;;;;;;;;;;5019288;28;20112;-94
2023/04/24 02:48:58;;;;;;;5.57;1.95;;;;;;;;;;5019125;28;20032;-92
2023/04/24 02:51:26;;;;;;;3.95;2.28;;;;;;;;;;5018603;28;20029;-92
2023/04/24 02:53:53;;;;;;;5.50;2.42;;;;;;;;;;5008344;28;20026;-92
2023/04/24 02:56:21;;;;;;;4.85;2.05;;;;;;;;;;4999466;28;20053;-93
2023/04/24 02:58:47;;;;;;;3.58;2.20;;;;;;;;;;4999269;28;20065;-93
2023/04/24 03:01:16;;;;;;;6.65;2.30;;;;;;;;;;4999273;28;20032;-92
2023/04/24 03:03:42;;;;;;;4.95;1.98;;;;;;;;;;4999653;28;20029;-93
2023/04/24 03:06:15;;;;;;;6.00;2.25;;;;;;;;;;4999236;28;20450;-93
2023/04/24 03:08:42;;;;;;;3.83;1.85;;;;;;;;;;4999195;28;20490;-94
2023/04/24 03:11:08;;;;;;;4.93;2.53;;;;;;;;;;4999173;28;20088;-93
2023/04/24 03:13:34;;;;;;;4.10;2.40;;;;;;;;;;4998937;28;20085;-93
2023/04/24 03:16:03;;;;;;;3.90;2.30;;;;;;;;;;4998891;28;20116;-93
2023/04/24 03:18:29;;;;;;;4.28;2.22;;;;;;;;;;4998979;28;20076;-93
2023/04/24 03:20:55;;;;;;;3.20;1.88;;;;;;;;;;4998834;28;20030;-92
2023/04/24 03:23:21;;;;;;;6.90;2.25;;;;;;;;;;4998941;28;20064;-93
2023/04/24 03:25:48;;;;;;;7.80;2.25;;;;;;;;;;4999859;28;20048;-93
2023/04/24 03:28:14;;;;;;;7.35;2.25;;;;;;;;;;5016649;28;20041;-93
2023/04/24 03:30:41;;;;;;;6.32;2.20;;;;;;;;;;5018494;28;20550;-93
2023/04/24 03:33:07;;;;;;;4.80;2.17;;;;;;;;;;4979526;28;20392;-93
2023/04/24 03:35:33;;;;;;;2.67;1.85;;;;;;;;;;4979397;28;20029;-93
2023/04/24 03:37:59;;;;;;;4.63;2.03;;;;;;;;;;4979594;28;20029;-93
2023/04/24 03:40:25;;;;;;;5.43;2.20;;;;;;;;;;4979176;28;20393;-92
2023/04/24 03:42:54;;;;;;;4.72;2.17;;;;;;;;;;4979093;28;20070;-93
2023/04/24 03:45:20;;;;;;;5.35;2.10;;;;;;;;;;4979199;28;20397;-94
2023/04/24 03:47:47;;;;;;;4.47;2.00;;;;;;;;;;4979019;28;20023;-93
2023/04/24 03:50:15;;;;;;;5.13;2.35;;;;;;;;;;4979183;28;20464;-93
2023/04/24 03:52:41;;;;;;;4.38;2.00;;;;;;;;;;4978951;28;20057;-93
2023/04/24 03:55:08;;;;;;;6.43;2.30;;;;;;;;;;4978858;28;20022;-92
2023/04/24 03:57:36;;;;;;;6.07;2.22;;;;;;;;;;4979017;28;20462;-93
2023/04/24 04:00:05;;;;;;;5.45;2.55;;;;;;;;;;4989314;28;20057;-92
2023/04/24 04:02:31;;;;;;;6.78;1.92;;;;;;;;;;4998113;28;20030;-93
2023/04/24 04:04:57;;;;;;;4.55;2.30;;;;;;;;;;4998091;28;20026;-93
2023/04/24 04:07:24;;;;;;;6.05;2.58;;;;;;;;;;4998092;28;20117;-92
2023/04/24 04:09:52;;;;;;;4.97;1.88;;;;;;;;;;4997853;28;20037;-93
2023/04/24 04:12:18;;;;;;;4.30;1.75;;;;;;;;;;4997720;28;20160;-94
2023/04/24 04:14:45;;;;;;;6.22;1.92;;;;;;;;;;4997869;28;20044;-93
2023/04/24 04:17:13;;;;;;;5.75;2.35;;;;;;;;;;4998415;28;20026;-93
2023/04/24 04:19:45;;;;;;;7.82;2.25;;;;;;;;;;4998446;28;20028;-95
2023/04/24 04:22:13;;;;;;;4.45;1.77;;;;;;;;;;4998469;28;20040;-94
2023/04/24 04:24:46;;;;;;;7.30;2.03;;;;;;;;;;4998799;28;20420;-96
2023/04/24 04:27:22;;;;;;;5.93;1.95;;;;;;;;;;4999934;28;20037;-94
2023/04/24 04:29:48;;;;;;;5.80;2.00;;;;;;;;;;5000032;28;20393;-94
2023/04/24 04:32:15;;;;;;;7.50;2.05;;;;;;;;;;4999304;28;20033;-93
2023/04/24 04:34:48;;;;;;;7.72;2.00;;;;;;;;;;4990265;28;20037;-96
2023/04/24 04:37:14;;;;;;;7.70;2.42;;;;;;;;;;4979105;28;20034;-95
2023/04/24 04:39:48;;;;;;;6.00;2.20;;;;;;;;;;4978771;28;20077;-94
2023/04/24 04:42:16;;;;;;;6.75;2.30;;;;;;;;;;4978541;28;20045;-94
2023/04/24 04:44:46;;;;;;;6.85;2.20;;;;;;;;;;4979658;28;20027;-95
2023/04/24 04:47:14;;;;;;;2.38;1.80;;;;;;;;;;4980134;28;20022;-94
2023/04/24 04:49:46;;;;;;;1.85;1.33;;;;;;;;;;4980472;28;20045;-95
2023/04/24 04:52:17;;;;;;;4.55;1.60;;;;;;;;;;4979961;28;20499;-94
2023/04/24 04:54:46;;;;;;;5.28;1.80;;;;;;;;;;4981569;28;20123;-95
2023/04/24 04:57:15;;;;;;;5.22;1.98;;;;;;;;;;4979025;28;20065;-95
2023/04/24 04:59:41;;;;;;;4.20;1.70;;;;;;;;;;4979831;28;20105;-95
2023/04/24 05:02:07;;;;;;;3.72;1.67;;;;;;;;;;4978828;28;20032;-95
2023/04/24 05:04:36;;;;;;;3.85;2.25;;;;;;;;;;4979108;28;20080;-94
2023/04/24 05:07:06;;;;;;;6.43;2.28;;;;;;;;;;4979051;28;20362;-95
2023/04/24 05:09:34;;;;;;;5.88;2.30;;;;;;;;;;4978449;28;20146;-95
2023/04/24 05:12:01;;;;;;;6.53;2.03;;;;;;;;;;4982657;28;20061;-96
2023/04/24 05:14:28;;;;;;;6.93;2.15;;;;;;;;;;5003140;28;20384;-95
2023/04/24 05:16:56;;;;;;;4.85;2.55;;;;;;;;;;5005677;28;20029;-95
2023/04/24 05:19:25;;;;;;;10.40;2.70;;;;;;;;;;5005498;28;20380;-95
2023/04/24 05:21:59;;;;;;;5.18;2.20;;;;;;;;;;5004555;28;20037;-95
2023/04/24 05:24:25;;;;;;;3.55;2.40;;;;;;;;;;5004548;28;20026;-95
2023/04/24 05:26:55;;;;;;;4.15;2.40;;;;;;;;;;5003869;28;20480;-95
2023/04/24 05:29:30;;;;;;;4.55;2.20;;;;;;;;;;5003905;28;20468;-94
2023/04/24 05:31:57;;;;;;;5.85;1.98;;;;;;;;;;5004891;28;20117;-94
2023/04/24 05:34:25;;;;;;;2.78;1.90;;;;;;;;;;5004646;28;20022;-95
2023/04/24 05:36:54;;;;;;;5.38;2.33;;;;;;;;;;5004095;28;20068;-95
2023/04/24 05:39:28;;;;;;;10.63;4.47;;;;;;;;;;5004742;28;20083;-96
2023/04/24 05:41:54;;;;;;;9.60;5.43;;;;;;;;;;5003939;28;20026;-95
2023/04/24 05:44:28;;;;;;;10.68;6.03;;;;;;;;;;5005148;28;20013;-94
2023/04/24 05:46:55;;;;;;;12.68;5.43;;;;;;;;;;5004214;28;20067;-94
2023/04/24 05:49:24;;;;;;;10.05;5.03;;;;;;;;;;5003913;28;20393;-95
2023/04/24 05:51:59;;;;;;;10.75;4.38;;;;;;;;;;5004401;28;20061;-96
2023/04/24 05:54:25;;;;;;;9.18;3.35;;;;;;;;;;5002120;28;20034;-95
2023/04/24 05:56:55;;;;;;;5.97;3.03;;;;;;;;;;5003938;28;20542;-95
2023/04/24 06:02:08;;;;;;;4.78;2.80;;;;;;;;;;5011290;28;20026;-95
2023/04/24 06:04:36;;;;;;;6.00;2.78;;;;;;;;;;5004001;28;20105;-95
2023/04/24 06:07:06;;;;;;;9.45;3.30;;;;;;;;;;5003313;28;20087;-94
2023/04/24 06:09:47;;;;;;;6.78;2.35;;;;;;;;;;5003418;28;20396;-96
2023/04/24 06:12:15;;;;;;;9.45;2.65;;;;;;;;;;5003300;28;20140;-94
2023/04/24 06:14:49;;;;;;;6.75;2.30;;;;;;;;;;5003365;28;20061;-94
2023/04/24 06:17:16;;;;;;;8.32;2.28;;;;;;;;;;5003432;28;20076;-94
2023/04/24 06:19:45;;;;;;;11.18;2.78;;;;;;;;;;5004047;28;20373;-94
2023/04/24 06:22:18;;;;;;;12.02;2.10;;;;;;;;;;5003954;28;20030;-96
2023/04/24 06:24:48;;;;;;;11.70;1.88;;;;;;;;;;5002599;28;20089;-95
2023/04/24 06:27:14;;;;;;;6.00;2.03;;;;;;;;;;5000069;28;20070;-93
2023/04/24 06:29:48;;;;;;;9.60;2.47;;;;;;;;;;5001056;28;20528;-94
2023/04/24 06:32:16;;;;;;;7.43;2.42;;;;;;;;;;5000644;28;20079;-96
2023/04/24 06:34:45;;;;;;;7.55;2.25;;;;;;;;;;5000503;28;20026;-95
2023/04/24 06:37:16;;;;;;;8.82;2.00;;;;;;;;;;5000627;28;20029;-95
2023/04/24 06:39:44;;;;;;;15.17;2.03;;;;;;;;;;5000283;28;20036;-95
2023/04/24 06:42:16;;;;;;;8.13;2.65;;;;;;;;;;4999984;28;20021;-95
2023/04/24 06:44:45;;;;;;;5.35;1.85;;;;;;;;;;5002050;28;20034;-94
2023/04/24 06:47:18;;;;;;;5.25;1.90;;;;;;;;;;5001353;28;20049;-95
2023/04/24 06:49:45;;;;;;;6.05;2.10;;;;;;;;;;5002115;28;20460;-95
2023/04/24 06:52:18;;;;;;;9.02;2.80;;;;;;;;;;5000094;28;20034;-95
2023/04/24 06:54:45;;;;;;;9.65;2.20;;;;;;;;;;5000734;28;20032;-94
2023/04/24 06:57:15;;;;;;;4.50;2.20;;;;;;;;;;5000610;28;20184;-95
2023/04/24 06:59:44;;;;;;;5.27;2.43;;;;;;;;;;5000495;28;20518;-96
2023/04/24 07:02:18;;;;;;;5.85;2.13;;;;;;;;;;5000141;28;20121;-95
2023/04/24 07:04:45;;;;;;;11.18;2.20;;;;;;;;;;5000443;28;20025;-95
2023/04/24 07:07:19;;;;;;;10.52;5.72;;;;;;;;;;5000973;28;20498;-96
2023/04/24 07:09:45;;;;;;;10.00;3.90;;;;;;;;;;5000064;28;20362;-95
2023/04/24 07:12:22;;;;;;;7.60;3.05;;;;;;;;;;5000261;28;20050;-95
2023/04/24 07:14:48;;;;;;;17.60;10.10;;;;;;;;;;5000481;28;20026;-95
2023/04/24 07:17:17;;;;;;;8.65;4.50;;;;;;;;;;4999927;28;20608;-96
2023/04/24 07:19:46;;;;;;;6.13;3.10;;;;;;;;;;5000026;28;20022;-95
2023/04/24 07:22:22;;;;;;;6.50;2.78;;;;;;;;;;4999548;28;20029;-96
2023/04/24 07:24:48;;;;;;;6.97;2.83;;;;;;;;;;4999958;28;20029;-94
2023/04/24 07:27:15;;;;;;;9.65;2.50;;;;;;;;;;4999824;28;20026;-94
2023/04/24 07:29:48;;;;;;;7.60;2.90;;;;;;;;;;4999580;28;20030;-94
2023/04/24 07:32:15;;;;;;;7.53;2.70;;;;;;;;;;4999427;28;20050;-94
2023/04/24 07:34:45;;;;;;;10.63;3.15;;;;;;;;;;4998946;28;20033;-95
2023/04/24 07:37:14;;;;;;;10.53;2.80;;;;;;;;;;4999706;28;20069;-95
2023/04/24 07:39:46;;;;;;;5.22;2.47;;;;;;;;;;4999386;28;20037;-94
2023/04/24 07:42:14;;;;;;;7.80;2.35;;;;;;;;;;4999425;28;20544;-95
2023/04/24 07:44:43;;;;;;;7.22;2.20;;;;;;;;;;4998855;28;20022;-95
2023/04/24 07:47:09;;;;;;;8.63;2.40;;;;;;;;;;4998651;28;20025;-96
2023/04/24 07:49:35;;;;;;;11.18;2.65;;;;;;;;;;4998678;28;20022;-95
2023/04/24 07:52:16;;;;;;;7.20;2.28;;;;;;;;;;4998910;28;20053;-94
2023/04/24 07:54:46;;;;;;;6.57;2.13;;;;;;;;;;5000077;28;20080;-94
2023/04/24 07:57:12;;;;;;;9.25;2.80;;;;;;;;;;4999176;28;20542;-95
2023/04/24 07:59:38;;;;;;;6.18;2.83;;;;;;;;;;4998788;28;20113;-94
2023/04/24 08:02:06;;;;;;;10.73;3.60;;;;;;;;;;4998931;28;20037;-94
2023/04/24 08:04:35;;;;;;;6.43;2.97;;;;;;;;;;4998523;28;20018;-94
2023/04/24 08:07:09;;;;;;;5.97;2.63;;;;;;;;;;4998139;28;20029;-94
2023/04/24 08:09:35;;;;;;;12.02;2.53;;;;;;;;;;4998069;28;20022;-94
2023/04/24 08:12:10;;;;;;;7.55;2.50;;;;;;;;;;4998769;28;20129;-94
2023/04/24 08:14:36;;;;;;;5.75;2.80;;;;;;;;;;4999486;28;20030;-95
2023/04/24 08:17:05;;;;;;;8.20;2.50;;;;;;;;;;4998625;28;20026;-94
2023/04/24 08:19:35;;;;;;;7.47;2.40;;;;;;;;;;4998172;28;20022;-94
2023/04/24 08:22:08;;;;;;;7.78;2.88;;;;;;;;;;4998974;28;20034;-95
2023/04/24 08:24:34;;;;;;;7.38;2.60;;;;;;;;;;4998321;28;20029;-94
2023/04/24 08:27:08;;;;;;;7.43;3.13;;;;;;;;;;4997968;28;20018;-93
2023/04/24 08:29:34;;;;;;;7.63;2.60;;;;;;;;;;4997938;28;20022;-94
2023/04/24 08:32:08;;;;;;;9.75;2.63;;;;;;;;;;4998028;28;20026;-95
2023/04/24 08:34:36;;;;;;;7.22;3.03;;;;;;;;;;4999247;28;20034;-96
2023/04/24 08:37:05;;;;;;;7.43;2.85;;;;;;;;;;4998550;28;20176;-95
2023/04/24 08:39:38;;;;;;;7.25;3.22;;;;;;;;;;4998348;28;20037;-94
2023/04/24 08:42:08;;;;;;;8.00;2.85;;;;;;;;;;4998531;28;20092;-94
2023/04/24 08:44:35;;;;;;;5.43;3.28;;;;;;;;;;4998168;28;20534;-96
2023/04/24 08:47:05;;;;;;;6.63;2.85;;;;;;;;;;4998896;28;20037;-95
2023/04/24 08:49:33;;;;;;;4.80;2.40;;;;;;;;;;4997864;28;20106;-95
2023/04/24 08:52:03;;;;;;;7.10;3.20;;;;;;;;;;4998319;28;20045;-94
2023/04/24 08:54:29;;;;;;;6.05;2.60;;;;;;;;;;4998193;28;20022;-95
2023/04/24 08:57:01;;;;;;;7.53;2.92;;;;;;;;;;4998068;28;20037;-95
2023/04/24 08:59:27;;;;;;;;;;;;;;;;;;4998098;28;20072;-94
2023/04/24 09:01:56;;;;;;;6.65;2.75;;;;;;;;;;4998090;28;19916;-94
2023/04/24 09:04:25;;;;;;;5.53;2.45;;;;;;;;;;4997927;28;20029;-95
2023/04/24 09:06:55;;;;;;;7.35;3.10;;;;;;;;;;4997688;28;20022;-94
2023/04/24 09:09:28;;;;;;;4.97;2.50;;;;;;;;;;4997739;28;20022;-94
2023/04/24 09:11:57;;;;;;;5.57;2.25;;;;;;;;;;4998688;28;20496;-94
2023/04/24 09:14:27;;;;;;;8.02;2.42;;;;;;;;;;4998083;28;20022;-95
2023/04/24 09:16:54;;;;;;;5.22;2.40;;;;;;;;;;4998022;28;20030;-94
2023/04/24 09:19:21;;;;;;;4.40;2.60;;;;;;;;;;4997668;28;20117;-94
2023/04/24 09:21:47;;;;;;;7.82;2.80;;;;;;;;;;4997183;28;20026;-94
2023/04/24 09:24:27;;;;;;;5.82;2.50;;;;;;;;;;4997428;28;20480;-95
2023/04/24 09:27:01;;;;;;;6.45;2.65;;;;;;;;;;4997079;28;20022;-95
2023/04/24 09:29:27;;;;;;;3.25;1.92;;;;;;;;;;4997051;28;20538;-96
2023/04/24 09:31:56;;;;;;;3.47;1.77;;;;;;;;;;4997528;28;20026;-96
2023/04/24 09:34:26;;;;;;;2.65;1.70;;;;;;;;;;4997145;28;20026;-95
2023/04/24 09:36:55;;;;;;;3.33;2.10;;;;;;;;;;4997203;28;20527;-94
2023/04/24 09:39:28;;;;;;;4.28;2.25;;;;;;;;;;4996859;28;20025;-95
2023/04/24 09:41:57;;;;;;;3.50;2.08;;;;;;;;;;4997050;28;20034;-95
2023/04/24 09:44:25;;;;;;;5.18;2.17;;;;;;;;;;4997118;28;20113;-95
2023/04/24 09:46:59;;;;;;;4.55;2.03;;;;;;;;;;4997010;28;20472;-94
2023/04/24 09:49:27;;;;;;;3.40;1.90;;;;;;;;;;4998489;28;20080;-94
2023/04/24 09:52:05;;;;;;;4.35;1.98;;;;;;;;;;4997278;28;20034;-95
2023/04/24 09:54:31;;;;;;;4.53;2.00;;;;;;;;;;4997666;28;20030;-94
2023/04/24 09:56:59;;;;;;;3.03;2.03;;;;;;;;;;4997668;28;20109;-94
2023/04/24 09:59:28;;;;;;;3.50;1.80;;;;;;;;;;4997998;28;20096;-96
2023/04/24 10:01:58;;;;;;;5.32;2.22;;;;;;;;;;5002127;28;20499;-96
2023/04/24 10:04:26;;;;;;;4.93;1.88;;;;;;;;;;5001119;28;20029;-96
2023/04/24 10:06:55;;;;;;;5.10;2.13;;;;;;;;;;5001070;28;20022;-96
2023/04/24 10:09:29;;;;;;;5.55;2.25;;;;;;;;;;5001627;28;20029;-96
2023/04/24 10:11:58;;;;;;;3.40;2.28;;;;;;;;;;5002003;28;20049;-96
2023/04/24 10:14:25;;;;;;;5.70;2.75;;;;;;;;;;5001114;28;20373;-96
2023/04/24 10:16:56;;;;;;;4.60;2.75;;;;;;;;;;5001629;28;20029;-94
2023/04/24 10:19:26;;;;;;;3.70;2.40;;;;;;;;;;5001075;28;20026;-94
2023/04/24 10:21:55;;;;;;;3.80;2.40;;;;;;;;;;5000661;28;20104;-95
2023/04/24 10:24:24;;;;;;;4.60;2.08;;;;;;;;;;5001493;28;20026;-94
2023/04/24 10:26:58;;;;;;;4.57;2.33;;;;;;;;;;5000921;28;20092;-95
2023/04/24 10:29:25;;;;;;;7.65;2.55;;;;;;;;;;5000633;28;20018;-95
2023/04/24 10:31:51;;;;;;;4.35;2.85;;;;;;;;;;5001391;28;20026;-96
2023/04/24 10:34:18;;;;;;;5.07;3.00;;;;;;;;;;5000368;28;20022;-95
2023/04/24 10:37:03;;;;;;;4.28;3.00;;;;;;;;;;5000192;28;20057;-95
2023/04/24 10:39:37;;;;;;;4.28;2.80;;;;;;;;;;5000708;28;20152;-94
2023/04/24 10:42:17;;;;;;;6.13;3.33;;;;;;;;;;5001159;28;20032;-95
2023/04/24 10:44:50;;;;;;;6.57;3.40;;;;;;;;;;4999981;28;20088;-95
2023/04/24 10:47:17;;;;;;;5.85;3.10;;;;;;;;;;5000638;28;20482;-94
2023/04/24 10:49:45;;;;;;;3.85;2.78;;;;;;;;;;5000174;28;20386;-94
2023/04/24 10:52:17;;;;;;;5.60;2.97;;;;;;;;;;5000894;28;20456;-95
2023/04/24 10:54:46;;;;;;;8.20;3.65;;;;;;;;;;5001020;28;20041;-94
2023/04/24 10:57:19;;;;;;;4.65;2.80;;;;;;;;;;5000416;28;20033;-95
2023/04/24 10:59:45;;;;;;;7.60;2.97;;;;;;;;;;5000301;28;20026;-94
2023/04/24 11:02:31;;;;;;;4.95;3.17;;;;;;;;;;4999753;28;20057;-96
2023/04/24 11:04:58;;;;;;;6.18;3.17;;;;;;;;;;5000152;28;20539;-94
2023/04/24 11:07:26;;;;;;;6.15;2.85;;;;;;;;;;5000022;28;20026;-96
2023/04/24 11:10:00;;;;;;;7.97;3.20;;;;;;;;;;4999210;28;20031;-95
2023/04/24 11:12:27;;;;;;;5.43;2.80;;;;;;;;;;4998214;28;20054;-94
2023/04/24 11:14:57;;;;;;;5.55;2.90;;;;;;;;;;4999391;28;20492;-95
2023/04/24 11:17:31;;;;;;;4.55;2.67;;;;;;;;;;4999167;28;20033;-96
2023/04/24 11:20:26;;;;;;;5.88;3.15;;;;;;;;;;5000030;28;20545;-95
2023/04/24 11:23:06;;;;;;;5.05;2.55;;;;;;;;;;4998625;28;20034;-95
2023/04/24 11:25:40;;;;;;;7.40;2.80;;;;;;;;;;5000043;28;20025;-94
2023/04/24 11:28:09;;;;;;;7.75;3.33;;;;;;;;;;4999963;28;20076;-94
2023/04/24 11:30:47;;;;;;;5.78;2.75;;;;;;;;;;4999621;28;20030;-95
2023/04/24 11:33:27;;;;;;;5.68;3.28;;;;;;;;;;5000318;28;20025;-94
2023/04/24 11:35:56;;;;;;;8.77;3.60;;;;;;;;;;4999778;28;20061;-95
2023/04/24 11:38:25;;;;;;;8.35;3.35;;;;;;;;;;4999695;28;20096;-95
2023/04/24 11:40:54;;;;;;;10.55;3.72;;;;;;;;;;4999879;28;20080;-95
2023/04/24 11:43:30;;;;;;;7.50;3.72;;;;;;;;;;4999412;28;20025;-96
2023/04/24 11:46:00;;;;;;;6.35;3.85;;;;;;;;;;4999725;28;20052;-95
2023/04/24 11:48:26;;;;;;;11.43;4.00;;;;;;;;;;4999700;28;20084;-96
2023/04/24 11:50:55;;;;;;;7.90;3.80;;;;;;;;;;4999226;28;20024;-95
2023/04/24 11:53:27;;;;;;;6.07;3.63;;;;;;;;;;4999063;28;20492;-95
2023/04/24 11:55:55;;;;;;;6.30;3.30;;;;;;;;;;4999323;28;20053;-95
2023/04/24 11:58:29;;;;;;;9.52;3.72;;;;;;;;;;4999446;28;20049;-95
2023/04/24 12:00:59;;;;;;;9.93;4.40;;;;;;;;;;4998948;28;20037;-95
2023/04/24 12:03:27;;;;;;;11.70;4.65;;;;;;;;;;4998987;28;20485;-96
2023/04/24 12:06:07;;;;;;;17.00;5.35;;;;;;;;;;4998882;28;20022;-96
2023/04/24 12:08:36;;;;;;;11.02;4.18;;;;;;;;;;4998862;28;20029;-95
2023/04/24 12:11:10;;;;;;;10.38;4.55;;;;;;;;;;4998981;28;20022;-95
2023/04/24 12:13:38;;;;;;;9.77;4.70;;;;;;;;;;4999465;28;20392;-96
2023/04/24 12:16:07;;;;;;;15.35;5.05;;;;;;;;;;4999170;28;20026;-95
2023/04/24 12:18:36;;;;;;;9.32;4.82;;;;;;;;;;4999055;28;20477;-96
2023/04/24 12:21:23;;;;;;;12.55;4.60;;;;;;;;;;4998817;28;20468;-95
2023/04/24 12:23:50;;;;;;;12.82;4.47;;;;;;;;;;4997881;28;20022;-94
2023/04/24 12:26:25;;;;;;;14.57;5.05;;;;;;;;;;4999092;28;20169;-95
2023/04/24 12:29:07;;;;;;;12.85;5.20;;;;;;;;;;4998728;28;20025;-95
2023/04/24 12:31:56;;;;;;;14.85;4.97;;;;;;;;;;4998794;28;20148;-94
2023/04/24 12:34:37;;;;;;;6.95;4.13;;;;;;;;;;4998545;28;20164;-96
2023/04/24 12:37:13;;;;;;;8.65;3.92;;;;;;;;;;4998678;28;20022;-96
2023/04/24 12:39:59;;;;;;;10.73;4.07;;;;;;;;;;4998689;28;20030;-96
2023/04/24 12:42:29;;;;;;;11.25;4.78;;;;;;;;;;4998303;28;20447;-96
2023/04/24 12:44:59;;;;;;;10.98;4.22;;;;;;;;;;4998597;28;20108;-96
2023/04/24 12:47:29;;;;;;;11.48;3.72;;;;;;;;;;4998628;28;20026;-95
2023/04/24 12:49:56;;;;;;;11.15;4.55;;;;;;;;;;4998508;28;20025;-96
2023/04/24 12:52:26;;;;;;;14.15;4.80;;;;;;;;;;4997907;28;20026;-96
2023/04/24 12:54:56;;;;;;;14.48;5.25;;;;;;;;;;4998324;28;20503;-96
2023/04/24 12:57:25;;;;;;;9.93;4.40;;;;;;;;;;4997794;28;20077;-96
2023/04/24 12:59:56;;;;;;;6.70;3.55;;;;;;;;;;4998822;28;20029;-96
2023/04/24 13:02:46;;;;;;;7.00;4.10;;;;;;;;;;4998391;28;20468;-95
2023/04/24 13:05:20;;;;;;;5.78;3.08;;;;;;;;;;4984246;28;20247;-96
2023/04/24 13:07:48;;;;;;;12.63;3.85;;;;;;;;;;4998197;28;20080;-96
2023/04/24 13:10:17;;;;;;;9.23;4.32;;;;;;;;;;4998053;28;20052;-96
2023/04/24 13:12:46;;;;;;;10.85;5.20;;;;;;;;;;4999648;28;20054;-95
2023/04/24 13:15:20;;;;;;;7.55;3.88;;;;;;;;;;4998547;28;20057;-96
2023/04/24 13:17:48;;;;;;;9.20;4.68;;;;;;;;;;4998071;28;20100;-96
2023/04/24 13:20:17;;;;;;;9.32;4.88;;;;;;;;;;4998547;28;20057;-96
2023/04/24 13:22:46;;;;;;;8.40;4.85;;;;;;;;;;4998597;28;20499;-96
2023/04/24 13:25:20;;;;;;;7.68;3.80;;;;;;;;;;4998629;28;20464;-96
2023/04/24 13:27:48;;;;;;;9.30;4.18;;;;;;;;;;4997850;28;20041;-96
2023/04/24 13:30:17;;;;;;;9.25;4.70;;;;;;;;;;4997980;28;20109;-96
2023/04/24 13:33:00;;;;;;;6.97;3.80;;;;;;;;;;4997581;28;20030;-95
2023/04/24 13:35:28;;;;;;;7.70;3.63;;;;;;;;;;4999848;28;20061;-95
2023/04/24 13:38:06;;;;;;;9.10;4.10;;;;;;;;;;5002970;28;20114;-96
2023/04/24 13:40:46;;;;;;;11.52;4.90;;;;;;;;;;5002493;28;20030;-96
2023/04/24 13:43:20;;;;;;;8.02;3.70;;;;;;;;;;5001779;28;20033;-96
2023/04/24 13:45:59;;;;;;;8.13;4.70;;;;;;;;;;5002328;28;20022;-96
2023/04/24 13:48:28;;;;;;;10.32;4.20;;;;;;;;;;5001878;28;20042;-95
2023/04/24 13:50:57;;;;;;;11.88;4.30;;;;;;;;;;5001512;28;20021;-96
2023/04/24 13:53:26;;;;;;;9.80;4.22;;;;;;;;;;5001280;28;20477;-95
2023/04/24 13:55:59;;;;;;;10.00;4.30;;;;;;;;;;5001898;28;20544;-96
2023/04/24 13:58:26;;;;;;;7.75;3.75;;;;;;;;;;5002184;28;20089;-96
2023/04/24 14:00:59;;;;;;;6.85;3.40;;;;;;;;;;5001516;28;20018;-95
2023/04/24 14:03:28;;;;;;;12.85;4.63;;;;;;;;;;5001915;28;20084;-96
2023/04/24 14:05:56;;;;;;;11.57;4.95;;;;;;;;;;5001619;28;20036;-96
2023/04/24 14:08:40;;;;;;;10.77;4.40;;;;;;;;;;5001610;28;20058;-96
2023/04/24 14:11:06;;;;;;;8.75;4.00;;;;;;;;;;5001085;28;20500;-96
2023/04/24 14:13:48;;;;;;;5.88;3.63;;;;;;;;;;5000675;28;20045;-96
2023/04/24 14:16:27;;;;;;;6.78;3.92;;;;;;;;;;5017230;28;20105;-96
2023/04/24 14:18:56;;;;;;;8.48;4.30;;;;;;;;;;5000989;28;20068;-96
2023/04/24 14:21:29;;;;;;;7.80;3.60;;;;;;;;;;5000979;28;20025;-96
2023/04/24 14:23:58;;;;;;;8.50;3.55;;;;;;;;;;5000871;28;20022;-96
2023/04/24 14:26:27;;;;;;;9.93;4.75;;;;;;;;;;5000976;28;20025;-96
2023/04/24 14:28:58;;;;;;;5.65;3.80;;;;;;;;;;5001296;28;20022;-96
2023/04/24 14:31:28;;;;;;;8.87;4.63;;;;;;;;;;5001417;28;20523;-96
2023/04/24 14:33:57;;;;;;;10.32;4.85;;;;;;;;;;5001589;28;20251;-96
2023/04/24 14:36:36;;;;;;;9.18;4.10;;;;;;;;;;5000747;28;20026;-96
2023/04/24 14:39:19;;;;;;;7.57;3.92;;;;;;;;;;5000688;28;20025;-96
2023/04/24 14:41:47;;;;;;;12.45;4.72;;;;;;;;;;5001864;28;20124;-96
2023/04/24 14:44:16;;;;;;;14.60;4.97;;;;;;;;;;5001226;28;20018;-96
2023/04/24 14:46:50;;;;;;;12.30;5.57;;;;;;;;;;5000033;28;20393;-96
2023/04/24 14:49:18;;;;;;;12.07;4.53;;;;;;;;;;5000858;28;20025;-96
2023/04/24 14:51:47;;;;;;;7.70;3.67;;;;;;;;;;5000423;28;20550;-95
2023/04/24 14:54:26;;;;;;;9.30;4.53;;;;;;;;;;5000515;28;20032;-95
2023/04/24 14:57:01;;;;;;;7.40;3.97;;;;;;;;;;5000351;28;20053;-96
2023/04/24 14:59:28;;;;;;;13.05;4.13;;;;;;;;;;5000020;28;20026;-95